createdAt,value
2022-12-15T00:00:17.053Z,-4.90
2022-12-15T00:03:30.764Z,-4.90
2022-12-15T00:06:44.407Z,-4.90
2022-12-15T00:09:57.610Z,-4.90
2022-12-15T00:13:10.715Z,-4.90
2022-12-15T00:16:23.992Z,-4.90
2022-12-15T00:19:37.308Z,-4.90
2022-12-15T00:22:50.436Z,-4.80
2022-12-15T00:26:03.635Z,-4.80
2022-12-15T00:29:17.454Z,-4.90
2022-12-15T00:32:30.686Z,-4.90
2022-12-15T00:35:43.820Z,-5.00
2022-12-15T00:38:43.678Z,-5.00
2022-12-15T00:41:42.775Z,-5.00
2022-12-15T00:44:40.604Z,-5.00
2022-12-15T00:47:38.808Z,-5.00
2022-12-15T00:50:52.028Z,-5.00
2022-12-15T00:54:05.440Z,-5.00
2022-12-15T00:57:18.621Z,-5.00
2022-12-15T01:00:32.021Z,-4.90
2022-12-15T01:03:45.506Z,-4.80
2022-12-15T01:06:59.071Z,-4.70
2022-12-15T01:10:12.183Z,-4.70
2022-12-15T01:13:29.351Z,-4.80
2022-12-15T01:16:42.904Z,-4.70
2022-12-15T01:19:56.305Z,-4.80
2022-12-15T01:22:55.956Z,-4.80
2022-12-15T01:25:54.600Z,-4.70
2022-12-15T01:28:52.413Z,-4.70
2022-12-15T01:31:50.555Z,-4.80
2022-12-15T01:34:48.332Z,-4.80
2022-12-15T01:37:50.123Z,-4.70
2022-12-15T01:40:54.650Z,-4.80
2022-12-15T01:43:52.687Z,-4.70
2022-12-15T01:46:53.829Z,-4.80
2022-12-15T01:49:54.033Z,-4.90
2022-12-15T01:52:53.066Z,-4.90
2022-12-15T01:55:52.166Z,-5.00
2022-12-15T01:58:54.306Z,-5.10
2022-12-15T02:01:52.374Z,-5.10
2022-12-15T02:04:52.505Z,-5.10
2022-12-15T02:07:50.503Z,-5.10
2022-12-15T02:11:06.205Z,-5.10
2022-12-15T02:14:08.031Z,-5.10
2022-12-15T02:17:27.011Z,-5.10
2022-12-15T02:20:50.857Z,-5.00
2022-12-15T02:24:26.938Z,-5.10
2022-12-15T02:27:48.538Z,-5.20
2022-12-15T02:31:12.160Z,-5.20
2022-12-15T02:34:16.570Z,-5.10
2022-12-15T02:37:25.694Z,-5.00
2022-12-15T02:40:24.254Z,-4.90
2022-12-15T02:43:22.049Z,-5.00
2022-12-15T02:46:38.832Z,-5.00
2022-12-15T02:50:02.088Z,-5.00
2022-12-15T02:53:31.102Z,-5.00
2022-12-15T02:56:52.310Z,-5.10
2022-12-15T02:59:58.721Z,-5.00
2022-12-15T03:02:57.314Z,-4.90
2022-12-15T03:05:55.771Z,-4.90
2022-12-15T03:08:53.557Z,-4.90
2022-12-15T03:11:51.842Z,-4.80
2022-12-15T03:14:49.728Z,-4.70
2022-12-15T03:17:47.901Z,-4.60
2022-12-15T03:20:45.673Z,-4.60
2022-12-15T03:23:43.618Z,-4.60
2022-12-15T03:26:41.430Z,-4.60
2022-12-15T03:29:39.383Z,-4.50
2022-12-15T03:32:37.165Z,-4.50
2022-12-15T03:35:35.162Z,-4.40
2022-12-15T03:38:33.193Z,-4.40
2022-12-15T03:41:31.120Z,-4.30
2022-12-15T03:44:28.893Z,-4.10
2022-12-15T03:47:26.854Z,-4.00
2022-12-15T03:50:28.650Z,-3.90
2022-12-15T03:53:27.328Z,-3.80
2022-12-15T03:56:26.076Z,-3.60
2022-12-15T03:59:23.984Z,-3.50
2022-12-15T04:02:21.957Z,-3.40
2022-12-15T04:05:33.024Z,-3.30
2022-12-15T04:08:30.864Z,-3.10
2022-12-15T04:11:28.858Z,-2.90
2022-12-15T04:14:26.677Z,-2.80
2022-12-15T04:17:24.705Z,-2.60
2022-12-15T04:20:23.644Z,-2.50
2022-12-15T04:23:21.659Z,-2.40
2022-12-15T04:26:34.854Z,-2.20
2022-12-15T04:29:48.015Z,-2.10
2022-12-15T04:33:00.874Z,-2.00
2022-12-15T04:36:14.035Z,-2.00
2022-12-15T04:39:27.167Z,-1.90
2022-12-15T04:42:41.386Z,-1.90
2022-12-15T04:45:54.578Z,-1.80
2022-12-15T04:49:07.942Z,-1.70
2022-12-15T04:52:21.092Z,-1.60
2022-12-15T04:55:33.991Z,-1.50
2022-12-15T04:58:47.391Z,-1.50
2022-12-15T05:02:01.397Z,-1.40
2022-12-15T05:05:14.666Z,-1.20
2022-12-15T05:08:27.621Z,-1.10
2022-12-15T05:11:40.710Z,-1.00
2022-12-15T05:14:53.611Z,-0.90
2022-12-15T05:18:06.830Z,-0.80
2022-12-15T05:21:20.221Z,-0.80
2022-12-15T05:24:34.339Z,-0.70
2022-12-15T05:27:47.614Z,-0.70
2022-12-15T05:31:00.688Z,-0.60
2022-12-15T05:34:04.724Z,-0.60
2022-12-15T05:37:05.347Z,-0.60
2022-12-15T05:40:03.343Z,-0.50
2022-12-15T05:43:01.888Z,-0.50
2022-12-15T05:46:05.552Z,-0.50
2022-12-15T05:49:06.594Z,-0.40
2022-12-15T05:52:06.992Z,-0.50
2022-12-15T05:55:06.603Z,-0.40
2022-12-15T05:58:05.284Z,-0.40
2022-12-15T06:01:07.431Z,-0.50
2022-12-15T06:04:06.155Z,-0.40
2022-12-15T06:07:04.394Z,-0.40
2022-12-15T06:10:02.416Z,-0.30
2022-12-15T06:13:00.292Z,-0.30
2022-12-15T06:16:02.348Z,-0.30
2022-12-15T06:19:02.053Z,-0.20
2022-12-15T06:22:00.142Z,-0.10
2022-12-15T06:24:58.160Z,-0.10
2022-12-15T06:28:01.521Z,0.00
2022-12-15T06:31:04.483Z,0.10
2022-12-15T06:34:06.054Z,0.10
2022-12-15T06:37:05.063Z,0.20
2022-12-15T06:40:03.224Z,0.10
2022-12-15T06:43:01.016Z,0.10
2022-12-15T06:45:58.981Z,0.20
2022-12-15T06:48:57.298Z,0.20
2022-12-15T06:51:55.263Z,0.20
2022-12-15T06:54:53.067Z,0.30
2022-12-15T06:57:51.061Z,0.30
2022-12-15T07:00:49.040Z,0.30
2022-12-15T07:03:47.569Z,0.40
2022-12-15T07:06:45.883Z,0.30
2022-12-15T07:09:43.811Z,0.40
2022-12-15T07:12:41.630Z,0.40
2022-12-15T07:15:41.545Z,0.50
2022-12-15T07:18:41.219Z,0.50
2022-12-15T07:21:39.363Z,0.50
2022-12-15T07:24:37.436Z,0.60
2022-12-15T07:27:36.056Z,0.50
2022-12-15T07:30:38.644Z,0.60
2022-12-15T07:33:38.569Z,0.70
2022-12-15T07:36:36.343Z,0.80
2022-12-15T07:39:34.351Z,0.70
2022-12-15T07:42:32.815Z,0.60
2022-12-15T07:45:30.795Z,0.60
2022-12-15T07:48:29.696Z,0.60
2022-12-15T07:51:28.386Z,0.70
2022-12-15T07:54:26.345Z,0.70
2022-12-15T07:57:24.339Z,0.70
2022-12-15T08:00:22.848Z,0.70
2022-12-15T08:03:21.079Z,0.80
2022-12-15T08:06:19.146Z,0.80
2022-12-15T08:09:17.147Z,0.80
2022-12-15T08:12:15.430Z,0.80
2022-12-15T08:15:13.445Z,0.80
2022-12-15T08:18:11.316Z,0.80
2022-12-15T08:21:11.356Z,0.70
2022-12-15T08:24:11.193Z,0.70
2022-12-15T08:27:09.649Z,0.60
2022-12-15T08:30:08.141Z,0.60
2022-12-15T08:33:06.862Z,0.60
2022-12-15T08:36:08.931Z,0.60
2022-12-15T08:39:06.982Z,0.70
2022-12-15T08:42:04.970Z,0.60
2022-12-15T08:45:03.773Z,0.60
2022-12-15T08:48:01.840Z,0.60
2022-12-15T08:51:00.750Z,0.50
2022-12-15T08:54:00.499Z,0.50
2022-12-15T08:56:58.489Z,0.50
2022-12-15T08:59:56.401Z,0.40
2022-12-15T09:02:54.417Z,0.50
2022-12-15T09:05:53.508Z,0.50
2022-12-15T09:08:54.282Z,0.60
2022-12-15T09:11:52.454Z,0.60
2022-12-15T09:14:50.433Z,0.50
2022-12-15T09:17:48.685Z,0.50
2022-12-15T09:20:46.842Z,0.50
2022-12-15T09:23:49.133Z,0.30
2022-12-15T09:26:47.166Z,0.40
2022-12-15T09:29:44.953Z,0.30
2022-12-15T09:32:42.840Z,0.50
2022-12-15T09:35:40.621Z,0.40
2022-12-15T09:38:39.327Z,0.50
2022-12-15T09:41:37.742Z,0.40
2022-12-15T09:44:38.284Z,0.40
2022-12-15T09:47:46.040Z,0.50
2022-12-15T09:50:48.444Z,0.50
2022-12-15T09:53:55.872Z,0.50
2022-12-15T09:56:58.892Z,0.50
2022-12-15T10:00:07.934Z,0.50
2022-12-15T10:03:35.377Z,0.50
2022-12-15T10:06:40.251Z,0.40
2022-12-15T10:09:38.561Z,0.40
2022-12-15T10:12:44.724Z,0.20
2022-12-15T10:15:58.341Z,0.30
2022-12-15T10:19:05.771Z,0.20
2022-12-15T10:22:04.099Z,0.10
2022-12-15T10:25:25.377Z,0.10
2022-12-15T10:28:51.341Z,0.10
2022-12-15T10:31:58.713Z,0.00
2022-12-15T10:34:56.822Z,-0.10
2022-12-15T10:38:00.585Z,-0.10
2022-12-15T10:41:03.315Z,-0.20
2022-12-15T10:44:03.145Z,-0.30
2022-12-15T10:47:10.685Z,-0.40
2022-12-15T10:50:25.350Z,-0.40
2022-12-15T10:53:40.819Z,-0.60
2022-12-15T10:56:55.242Z,-0.80
2022-12-15T10:59:53.244Z,-0.80
2022-12-15T11:02:52.622Z,-0.70
2022-12-15T11:05:57.018Z,-0.70
2022-12-15T11:08:58.381Z,-0.80
2022-12-15T11:12:12.240Z,-0.80
2022-12-15T11:15:45.904Z,-0.90
2022-12-15T11:18:59.615Z,-1.00
2022-12-15T11:22:03.574Z,-1.10
2022-12-15T11:25:21.074Z,-1.20
2022-12-15T11:28:24.832Z,-1.30
2022-12-15T11:31:34.639Z,-1.30
2022-12-15T11:34:38.350Z,-1.30
2022-12-15T11:37:44.080Z,-1.30
2022-12-15T11:40:43.645Z,-1.30
2022-12-15T11:44:12.907Z,-1.30
2022-12-15T11:47:33.024Z,-1.40
2022-12-15T11:50:51.109Z,-1.40
2022-12-15T11:54:08.323Z,-1.50
2022-12-15T11:57:41.371Z,-1.60
2022-12-15T12:00:50.586Z,-1.60
2022-12-15T12:04:11.984Z,-1.70
2022-12-15T12:07:37.063Z,-1.80
2022-12-15T12:11:00.587Z,-1.90
2022-12-15T12:14:29.141Z,-1.90
2022-12-15T12:17:51.025Z,-1.90
2022-12-15T12:21:03.052Z,-1.90
2022-12-15T12:24:05.349Z,-1.90
2022-12-15T12:27:11.501Z,-2.00
2022-12-15T12:30:16.258Z,-2.00
2022-12-15T12:33:34.096Z,-2.00
2022-12-15T12:36:32.049Z,-2.00
2022-12-15T12:39:31.895Z,-2.10
2022-12-15T12:42:41.423Z,-2.20
2022-12-15T12:45:56.536Z,-2.50
2022-12-15T12:49:01.438Z,-2.40
2022-12-15T12:52:02.935Z,-2.40
2022-12-15T12:55:09.541Z,-2.40
2022-12-15T12:58:42.622Z,-2.40
2022-12-15T13:01:40.935Z,-2.50
2022-12-15T13:04:40.760Z,-2.50
2022-12-15T13:07:41.453Z,-2.60
2022-12-15T13:10:43.144Z,-2.60
2022-12-15T13:13:51.048Z,-2.60
2022-12-15T13:20:21.907Z,-2.60
2022-12-15T13:23:41.002Z,-2.60
2022-12-15T13:26:45.565Z,-2.60
2022-12-15T13:30:03.665Z,-2.50
2022-12-15T13:33:19.928Z,-2.60
2022-12-15T13:36:47.078Z,-2.70
2022-12-15T13:39:57.557Z,-2.70
2022-12-15T13:43:00.678Z,-2.70
2022-12-15T13:46:10.268Z,-2.70
2022-12-15T13:49:23.442Z,-2.70
2022-12-15T13:53:08.504Z,-2.70
2022-12-15T13:56:29.549Z,-2.80
2022-12-15T13:59:49.446Z,-2.80
2022-12-15T14:02:47.789Z,-2.80
2022-12-15T14:06:01.275Z,-2.80
2022-12-15T14:09:01.168Z,-2.80
2022-12-15T14:11:59.953Z,-2.80
2022-12-15T14:14:57.974Z,-2.80
2022-12-15T14:17:58.651Z,-2.80
2022-12-15T14:20:58.352Z,-2.80
2022-12-15T14:24:28.851Z,-2.80
2022-12-15T14:27:33.152Z,-2.90
2022-12-15T14:30:33.723Z,-2.90
2022-12-15T14:33:36.004Z,-2.90
2022-12-15T14:36:34.856Z,-2.90
2022-12-15T14:39:40.227Z,-3.10
2022-12-15T14:42:39.844Z,-3.00
2022-12-15T14:45:38.119Z,-3.00
2022-12-15T14:48:41.835Z,-3.00
2022-12-15T14:52:02.122Z,-3.00
2022-12-15T14:55:02.576Z,-3.10
2022-12-15T14:58:01.434Z,-3.00
2022-12-15T15:01:00.678Z,-3.00
2022-12-15T15:03:10.972Z,-2.60
2022-12-15T15:04:05.870Z,-3.00
2022-12-15T15:07:07.104Z,-3.00
2022-12-15T15:10:23.033Z,-3.00
2022-12-15T15:13:24.617Z,-2.90
2022-12-15T15:16:22.650Z,-2.90
2022-12-15T15:19:23.306Z,-2.80
2022-12-15T15:22:40.632Z,-2.80
2022-12-15T15:25:42.452Z,-2.70
2022-12-15T15:28:42.625Z,-2.70
2022-12-15T15:31:42.349Z,-2.70
2022-12-15T15:34:40.287Z,-2.60
2022-12-15T15:37:38.326Z,-2.70
2022-12-15T15:40:36.286Z,-2.70
2022-12-15T15:43:34.311Z,-2.60
2022-12-15T15:46:36.122Z,-2.60
2022-12-15T15:49:39.283Z,-2.50
2022-12-15T15:52:38.689Z,-2.50
2022-12-15T15:55:39.890Z,-2.40
2022-12-15T15:58:38.543Z,-2.30
2022-12-15T16:01:36.589Z,-2.20
2022-12-15T16:04:37.920Z,-2.20
2022-12-15T16:07:36.322Z,-2.20
2022-12-15T16:10:34.143Z,-2.20
2022-12-15T16:13:32.168Z,-2.20
2022-12-15T16:16:33.776Z,-2.30
2022-12-15T16:19:37.944Z,-2.20
2022-12-15T16:22:37.374Z,-2.10
2022-12-15T16:25:48.552Z,-2.10
2022-12-15T16:28:49.046Z,-2.10
2022-12-15T16:31:47.601Z,-2.10
2022-12-15T16:34:45.822Z,-2.20
2022-12-15T16:37:47.773Z,-2.10
2022-12-15T16:40:45.948Z,-2.10
2022-12-15T16:43:48.081Z,-2.10
2022-12-15T16:46:46.647Z,-2.10
2022-12-15T16:49:45.158Z,-2.20
2022-12-15T16:52:45.103Z,-2.10
2022-12-15T16:55:43.618Z,-2.10
2022-12-15T16:58:41.541Z,-2.00
2022-12-15T17:01:40.391Z,-2.00
2022-12-15T17:04:38.407Z,-2.00
2022-12-15T17:07:36.580Z,-2.00
2022-12-15T17:10:34.413Z,-2.00
2022-12-15T17:13:43.760Z,-2.00
2022-12-15T17:16:43.814Z,-1.90
2022-12-15T17:19:52.610Z,-1.90
2022-12-15T17:23:04.335Z,-2.00
2022-12-15T17:26:27.446Z,-2.10
2022-12-15T17:29:24.700Z,-2.10
2022-12-15T17:32:22.909Z,-2.10
2022-12-15T17:35:20.761Z,-2.30
2022-12-15T17:38:21.531Z,-2.40
2022-12-15T17:41:42.830Z,-2.40
2022-12-15T17:44:38.542Z,-2.40
2022-12-15T17:47:36.676Z,-2.30
2022-12-15T17:50:34.766Z,-2.40
2022-12-15T17:53:33.059Z,-2.40
2022-12-15T17:56:32.145Z,-2.40
2022-12-15T17:59:32.085Z,-2.40
2022-12-15T18:02:30.425Z,-2.40
2022-12-15T18:05:30.616Z,-2.40
2022-12-15T18:08:29.270Z,-2.40
2022-12-15T18:11:27.151Z,-2.40
2022-12-15T18:14:25.166Z,-2.40
2022-12-15T18:17:23.955Z,-2.30
2022-12-15T18:20:22.124Z,-2.20
2022-12-15T18:23:23.615Z,-2.20
2022-12-15T18:26:25.322Z,-2.20
2022-12-15T18:29:24.619Z,-2.20
2022-12-15T18:32:26.258Z,-2.50
2022-12-15T18:35:30.918Z,-2.60
2022-12-15T18:38:30.833Z,-2.50
2022-12-15T18:41:28.978Z,-2.50
2022-12-15T18:44:31.917Z,-2.50
2022-12-15T18:47:29.805Z,-2.40
2022-12-15T18:50:27.802Z,-2.30
2022-12-15T18:53:36.078Z,-2.20
2022-12-15T18:56:34.160Z,-2.20
2022-12-15T18:59:31.963Z,-2.10
2022-12-15T19:02:30.032Z,-2.10
2022-12-15T19:05:29.515Z,-2.10
2022-12-15T19:08:29.211Z,-2.00
2022-12-15T19:11:31.444Z,-2.10
2022-12-15T19:14:44.941Z,-2.10
2022-12-15T19:17:58.087Z,-2.10
2022-12-15T19:21:10.940Z,-2.10
2022-12-15T19:24:15.259Z,-2.10
2022-12-15T19:27:21.906Z,-2.20
2022-12-15T19:30:21.208Z,-2.20
2022-12-15T19:33:20.107Z,-2.20
2022-12-15T19:36:23.365Z,-2.20
2022-12-15T19:39:25.243Z,-2.10
2022-12-15T19:42:41.413Z,-2.20
2022-12-15T19:45:39.500Z,-2.10
2022-12-15T19:48:37.328Z,-2.10
2022-12-15T19:51:35.536Z,-2.10
2022-12-15T19:54:33.399Z,-2.10
2022-12-15T19:57:31.708Z,-2.10
2022-12-15T20:00:29.484Z,-2.10
2022-12-15T20:03:29.132Z,-2.10
2022-12-15T20:06:28.287Z,-2.10
2022-12-15T20:09:26.226Z,-2.00
2022-12-15T20:12:24.543Z,-1.80
2022-12-15T20:15:24.720Z,-1.70
2022-12-15T20:18:22.627Z,-1.70
2022-12-15T20:21:22.728Z,-1.60
2022-12-15T20:24:20.931Z,-1.50
2022-12-15T20:27:21.257Z,-1.90
2022-12-15T20:30:25.579Z,-1.90
2022-12-15T20:33:24.044Z,-2.00
2022-12-15T20:36:26.038Z,-2.10
2022-12-15T20:39:27.876Z,-2.10
2022-12-15T20:42:25.926Z,-2.10
2022-12-15T20:45:27.029Z,-2.10
2022-12-15T20:48:26.171Z,-2.20
2022-12-15T20:51:27.639Z,-2.10
2022-12-15T20:54:25.485Z,-2.10
2022-12-15T20:57:23.365Z,-2.10
2022-12-15T21:00:22.400Z,-1.90
2022-12-15T21:03:25.638Z,-1.90
2022-12-15T21:06:25.690Z,-1.70
2022-12-15T21:09:24.532Z,-1.80
2022-12-15T21:12:26.326Z,-1.90
2022-12-15T21:15:24.509Z,-1.90
2022-12-15T21:19:10.788Z,-2.00
2022-12-15T21:21:44.913Z,-1.90
2022-12-15T21:24:42.741Z,-1.90
2022-12-15T21:27:40.693Z,-1.80
2022-12-15T21:30:39.821Z,-1.80
2022-12-15T21:33:37.776Z,-1.70
2022-12-15T21:36:36.003Z,-1.60
2022-12-15T21:39:37.052Z,-1.60
2022-12-15T21:42:36.846Z,-1.60
2022-12-15T21:45:34.741Z,-1.50
2022-12-15T21:48:47.946Z,-1.50
2022-12-15T21:51:51.959Z,-1.50
2022-12-15T21:54:49.933Z,-1.40
2022-12-15T21:57:51.674Z,-1.50
2022-12-15T22:00:49.599Z,-1.40
2022-12-15T22:03:54.618Z,-1.20
2022-12-15T22:06:52.662Z,-1.30
2022-12-15T22:09:52.479Z,-1.20
2022-12-15T22:12:59.301Z,-1.20
2022-12-15T22:15:57.806Z,-1.10
2022-12-15T22:18:57.893Z,-1.00
2022-12-15T22:21:55.830Z,-1.00
2022-12-15T22:24:54.285Z,-1.10
2022-12-15T22:27:54.844Z,-1.20
2022-12-15T22:30:54.582Z,-1.20
2022-12-15T22:33:52.884Z,-1.20
2022-12-15T22:36:53.158Z,-1.20
2022-12-15T22:39:52.841Z,-1.20
2022-12-15T22:42:55.880Z,-1.20
2022-12-15T22:45:56.116Z,-1.20
2022-12-15T22:48:54.985Z,-1.30
2022-12-15T22:51:53.598Z,-1.30
2022-12-15T22:54:55.007Z,-1.30
2022-12-15T22:58:11.355Z,-1.40
2022-12-15T23:01:10.803Z,-1.30
2022-12-15T23:04:08.771Z,-1.30
2022-12-15T23:07:10.526Z,-1.30
2022-12-15T23:10:26.092Z,-1.30
2022-12-15T23:13:23.968Z,-1.30
2022-12-15T23:16:22.271Z,-1.30
2022-12-15T23:19:27.768Z,-1.50
2022-12-15T23:22:25.681Z,-1.40
2022-12-15T23:25:23.532Z,-1.50
2022-12-15T23:28:22.078Z,-1.50
2022-12-15T23:31:21.194Z,-1.50
2022-12-15T23:34:19.206Z,-1.50
2022-12-15T23:37:17.639Z,-1.30
2022-12-15T23:40:21.791Z,-1.10
2022-12-15T23:43:19.992Z,-1.00
2022-12-15T23:46:19.225Z,-0.80
2022-12-15T23:49:17.698Z,-0.60
2022-12-15T23:52:15.506Z,-0.50
2022-12-15T23:55:13.349Z,-0.30
2022-12-15T23:58:11.471Z,-0.30
